sensor_id;sensor_type;location;lat;lon;timestamp;pressure;altitude;pressure_sealevel;temperature;humidity
55470;BME280;41334;47.872;16.384;2022-08-23T00:00:13;98795.84;;;11.26;81.86
55470;BME280;41334;47.872;16.384;2022-08-23T00:03:18;98803.69;;;11.21;84.00
55470;BME280;41334;47.872;16.384;2022-08-23T00:06:20;98802.63;;;11.08;85.16
55470;BME280;41334;47.872;16.384;2022-08-23T00:09:26;98809.03;;;11.14;86.28
55470;BME280;41334;47.872;16.384;2022-08-23T00:12:29;98818.72;;;11.08;87.04
55470;BME280;41334;47.872;16.384;2022-08-23T00:15:31;98816.88;;;11.09;87.64
55470;BME280;41334;47.872;16.384;2022-08-23T00:18:34;98808.00;;;10.95;87.85
55470;BME280;41334;47.872;16.384;2022-08-23T00:21:36;98816.47;;;10.92;88.79
55470;BME280;41334;47.872;16.384;2022-08-23T00:24:39;98813.59;;;11.00;88.52
55470;BME280;41334;47.872;16.384;2022-08-23T00:27:41;98808.63;;;11.10;88.96
55470;BME280;41334;47.872;16.384;2022-08-23T00:30:43;98822.88;;;11.04;89.07
55470;BME280;41334;47.872;16.384;2022-08-23T00:33:45;98815.22;;;11.08;89.27
55470;BME280;41334;47.872;16.384;2022-08-23T00:36:48;98819.56;;;11.02;89.28
55470;BME280;41334;47.872;16.384;2022-08-23T00:39:50;98820.19;;;11.11;89.56
55470;BME280;41334;47.872;16.384;2022-08-23T00:42:56;98823.50;;;11.00;89.48
55470;BME280;41334;47.872;16.384;2022-08-23T00:46:44;98821.00;;;10.98;89.26
55470;BME280;41334;47.872;16.384;2022-08-23T00:50:27;98826.78;;;11.02;89.30
55470;BME280;41334;47.872;16.384;2022-08-23T00:53:35;98820.59;;;11.01;89.45
55470;BME280;41334;47.872;16.384;2022-08-23T00:56:40;98825.97;;;11.01;89.17
55470;BME280;41334;47.872;16.384;2022-08-23T00:59:42;98817.09;;;11.01;88.87
55470;BME280;41334;47.872;16.384;2022-08-23T01:02:45;98822.03;;;11.04;88.50
55470;BME280;41334;47.872;16.384;2022-08-23T01:09:23;98822.22;;;11.09;88.73
55470;BME280;41334;47.872;16.384;2022-08-23T01:12:34;98819.16;;;11.19;88.74
55470;BME280;41334;47.872;16.384;2022-08-23T01:15:42;98819.75;;;11.14;88.63
55470;BME280;41334;47.872;16.384;2022-08-23T01:18:47;98822.06;;;11.10;88.38
55470;BME280;41334;47.872;16.384;2022-08-23T01:22:03;98827.41;;;11.17;88.45
55470;BME280;41334;47.872;16.384;2022-08-23T01:25:12;98814.81;;;11.11;88.70
55470;BME280;41334;47.872;16.384;2022-08-23T01:28:16;98814.41;;;11.14;88.54
55470;BME280;41334;47.872;16.384;2022-08-23T01:31:20;98819.38;;;11.10;88.43
55470;BME280;41334;47.872;16.384;2022-08-23T01:34:27;98809.88;;;11.15;88.28
55470;BME280;41334;47.872;16.384;2022-08-23T01:37:29;98823.69;;;11.11;88.18
55470;BME280;41334;47.872;16.384;2022-08-23T01:40:32;98807.81;;;11.10;87.92
55470;BME280;41334;47.872;16.384;2022-08-23T01:43:35;98820.59;;;11.08;87.86
55470;BME280;41334;47.872;16.384;2022-08-23T01:46:37;98811.50;;;11.09;87.95
55470;BME280;41334;47.872;16.384;2022-08-23T01:49:39;98807.00;;;11.09;87.72
55470;BME280;41334;47.872;16.384;2022-08-23T01:52:41;98811.50;;;11.09;87.64
55470;BME280;41334;47.872;16.384;2022-08-23T01:55:50;98817.72;;;11.09;87.95
55470;BME280;41334;47.872;16.384;2022-08-23T01:58:53;98811.72;;;11.07;87.46
55470;BME280;41334;47.872;16.384;2022-08-23T02:01:58;98816.06;;;11.15;87.68
55470;BME280;41334;47.872;16.384;2022-08-23T02:05:00;98813.56;;;11.14;87.55
55470;BME280;41334;47.872;16.384;2022-08-23T02:08:04;98816.06;;;11.15;87.47
55470;BME280;41334;47.872;16.384;2022-08-23T02:11:35;98809.88;;;11.15;87.39
55470;BME280;41334;47.872;16.384;2022-08-23T02:14:37;98817.28;;;11.13;87.32
55470;BME280;41334;47.872;16.384;2022-08-23T02:17:50;98819.97;;;11.13;87.50
55470;BME280;41334;47.872;16.384;2022-08-23T02:20:55;98819.78;;;11.07;87.98
55470;BME280;41334;47.872;16.384;2022-08-23T02:23:58;98823.09;;;11.09;88.45
55470;BME280;41334;47.872;16.384;2022-08-23T02:27:03;98838.34;;;11.02;88.65
55470;BME280;41334;47.872;16.384;2022-08-23T02:30:11;98839.16;;;11.03;88.76
55470;BME280;41334;47.872;16.384;2022-08-23T02:33:13;98831.75;;;11.05;88.59
55470;BME280;41334;47.872;16.384;2022-08-23T02:36:17;98836.69;;;11.01;88.34
55470;BME280;41334;47.872;16.384;2022-08-23T02:39:19;98841.84;;;11.03;88.47
55470;BME280;41334;47.872;16.384;2022-08-23T02:42:21;98844.13;;;11.06;88.32
55470;BME280;41334;47.872;16.384;2022-08-23T02:45:25;98836.06;;;11.06;88.26
55470;BME280;41334;47.872;16.384;2022-08-23T02:48:27;98846.38;;;11.02;88.44
55470;BME280;41334;47.872;16.384;2022-08-23T02:51:36;98843.28;;;10.99;87.89
55470;BME280;41334;47.872;16.384;2022-08-23T02:54:38;98851.53;;;10.97;88.27
55470;BME280;41334;47.872;16.384;2022-08-23T02:57:41;98862.03;;;10.92;88.63
55470;BME280;41334;47.872;16.384;2022-08-23T03:00:49;98860.63;;;10.90;88.88
55470;BME280;41334;47.872;16.384;2022-08-23T03:03:54;98863.91;;;10.92;89.28
55470;BME280;41334;47.872;16.384;2022-08-23T03:06:56;98866.59;;;10.92;89.17
55470;BME280;41334;47.872;16.384;2022-08-23T03:09:58;98863.09;;;10.98;89.54
55470;BME280;41334;47.872;16.384;2022-08-23T03:13:03;98869.91;;;11.00;89.60
55470;BME280;41334;47.872;16.384;2022-08-23T03:16:05;98865.16;;;10.96;89.54
55470;BME280;41334;47.872;16.384;2022-08-23T03:19:07;98850.50;;;10.98;89.98
55470;BME280;41334;47.872;16.384;2022-08-23T03:22:10;98854.00;;;10.92;90.12
55470;BME280;41334;47.872;16.384;2022-08-23T03:25:12;98850.28;;;10.93;90.19
55470;BME280;41334;47.872;16.384;2022-08-23T03:28:35;98855.25;;;11.03;90.34
55470;BME280;41334;47.872;16.384;2022-08-23T03:31:38;98866.59;;;10.98;90.65
55470;BME280;41334;47.872;16.384;2022-08-23T03:34:43;98865.38;;;11.01;90.63
55470;BME280;41334;47.872;16.384;2022-08-23T03:37:45;98870.31;;;10.97;90.68
55470;BME280;41334;47.872;16.384;2022-08-23T03:40:48;98876.50;;;10.91;90.62
55470;BME280;41334;47.872;16.384;2022-08-23T03:43:53;98879.38;;;10.96;90.91
55470;BME280;41334;47.872;16.384;2022-08-23T03:46:55;98885.34;;;10.98;90.57
55470;BME280;41334;47.872;16.384;2022-08-23T03:49:58;98895.25;;;10.98;90.60
55470;BME280;41334;47.872;16.384;2022-08-23T03:53:01;98894.22;;;10.99;90.87
55470;BME280;41334;47.872;16.384;2022-08-23T03:56:02;98895.47;;;11.03;90.67
55470;BME280;41334;47.872;16.384;2022-08-23T03:59:07;98902.25;;;10.92;90.81
55470;BME280;41334;47.872;16.384;2022-08-23T04:02:09;98908.06;;;11.02;90.96
55470;BME280;41334;47.872;16.384;2022-08-23T04:05:12;98901.47;;;11.05;90.90
55470;BME280;41334;47.872;16.384;2022-08-23T04:08:31;98905.19;;;11.10;91.17
55470;BME280;41334;47.872;16.384;2022-08-23T04:11:36;98905.81;;;11.06;91.20
55470;BME280;41334;47.872;16.384;2022-08-23T04:14:40;98907.25;;;11.02;91.42
55470;BME280;41334;47.872;16.384;2022-08-23T04:17:42;98901.06;;;10.95;91.45
55470;BME280;41334;47.872;16.384;2022-08-23T04:20:44;98902.88;;;10.88;91.45
55470;BME280;41334;47.872;16.384;2022-08-23T04:23:46;98904.34;;;10.90;91.50
55470;BME280;41334;47.872;16.384;2022-08-23T04:26:48;98899.38;;;10.94;91.56
55470;BME280;41334;47.872;16.384;2022-08-23T04:29:51;98906.81;;;10.98;91.53
55470;BME280;41334;47.872;16.384;2022-08-23T04:32:53;98900.22;;;11.07;91.74
55470;BME280;41334;47.872;16.384;2022-08-23T04:35:57;98901.06;;;11.01;91.64
55470;BME280;41334;47.872;16.384;2022-08-23T04:39:00;98906.19;;;11.03;91.85
55470;BME280;41334;47.872;16.384;2022-08-23T04:42:02;98910.97;;;11.07;91.90
55470;BME280;41334;47.872;16.384;2022-08-23T04:45:22;98914.69;;;11.06;91.94
55470;BME280;41334;47.872;16.384;2022-08-23T04:48:26;98910.13;;;11.07;91.88
55470;BME280;41334;47.872;16.384;2022-08-23T04:51:28;98918.78;;;11.02;91.94
55470;BME280;41334;47.872;16.384;2022-08-23T04:54:30;98925.84;;;11.10;91.80
55470;BME280;41334;47.872;16.384;2022-08-23T04:57:54;98925.22;;;11.21;92.11
55470;BME280;41334;47.872;16.384;2022-08-23T05:01:04;98924.63;;;11.26;91.89
55470;BME280;41334;47.872;16.384;2022-08-23T05:04:08;98925.44;;;11.20;92.40
55470;BME280;41334;47.872;16.384;2022-08-23T05:07:14;98941.53;;;11.33;92.01
55470;BME280;41334;47.872;16.384;2022-08-23T05:10:16;98934.72;;;11.37;92.08
55470;BME280;41334;47.872;16.384;2022-08-23T05:13:22;98945.03;;;11.40;92.08
55470;BME280;41334;47.872;16.384;2022-08-23T05:16:24;98946.94;;;11.46;91.95
55470;BME280;41334;47.872;16.384;2022-08-23T05:19:34;98947.53;;;11.48;91.91
55470;BME280;41334;47.872;16.384;2022-08-23T05:22:41;98946.06;;;11.32;91.30
55470;BME280;41334;47.872;16.384;2022-08-23T05:25:54;98957.63;;;11.40;91.34
55470;BME280;41334;47.872;16.384;2022-08-23T05:29:07;98957.06;;;11.51;91.16
55470;BME280;41334;47.872;16.384;2022-08-23T05:32:16;98958.88;;;11.44;90.89
55470;BME280;41334;47.872;16.384;2022-08-23T05:35:18;98959.72;;;11.51;90.88
55470;BME280;41334;47.872;16.384;2022-08-23T05:38:21;98964.66;;;11.60;90.77
55470;BME280;41334;47.872;16.384;2022-08-23T05:41:23;98970.25;;;11.59;90.97
55470;BME280;41334;47.872;16.384;2022-08-23T05:44:42;98962.41;;;11.51;90.66
55470;BME280;41334;47.872;16.384;2022-08-23T05:47:45;98971.28;;;11.51;90.28
55470;BME280;41334;47.872;16.384;2022-08-23T05:51:29;98973.34;;;11.62;90.46
55470;BME280;41334;47.872;16.384;2022-08-23T05:54:29;98966.09;;;11.50;89.69
55470;BME280;41334;47.872;16.384;2022-08-23T05:58:03;98972.78;;;11.67;89.99
55470;BME280;41334;47.872;16.384;2022-08-23T06:01:05;98969.47;;;11.72;90.17
55470;BME280;41334;47.872;16.384;2022-08-23T06:04:09;98968.84;;;11.63;89.65
55470;BME280;41334;47.872;16.384;2022-08-23T06:07:15;98971.13;;;11.66;89.78
55470;BME280;41334;47.872;16.384;2022-08-23T06:10:17;98974.63;;;11.67;89.96
55470;BME280;41334;47.872;16.384;2022-08-23T06:13:30;98984.53;;;11.73;89.69
55470;BME280;41334;47.872;16.384;2022-08-23T06:16:36;98980.41;;;11.70;89.50
55470;BME280;41334;47.872;16.384;2022-08-23T06:19:38;98979.56;;;11.56;89.34
55470;BME280;41334;47.872;16.384;2022-08-23T06:23:04;98985.78;;;11.70;89.40
55470;BME280;41334;47.872;16.384;2022-08-23T06:26:28;98993.63;;;11.85;89.75
55470;BME280;41334;47.872;16.384;2022-08-23T06:29:32;98981.66;;;11.74;89.44
55470;BME280;41334;47.872;16.384;2022-08-23T06:32:56;98989.06;;;11.85;89.43
55470;BME280;41334;47.872;16.384;2022-08-23T06:36:18;98980.00;;;11.93;89.19
55470;BME280;41334;47.872;16.384;2022-08-23T06:39:40;98981.63;;;12.07;89.48
55470;BME280;41334;47.872;16.384;2022-08-23T06:43:00;98987.63;;;12.03;89.18
55470;BME280;41334;47.872;16.384;2022-08-23T06:46:23;98984.09;;;12.15;88.99
55470;BME280;41334;47.872;16.384;2022-08-23T06:49:29;98979.97;;;12.20;89.00
55470;BME280;41334;47.872;16.384;2022-08-23T06:52:31;98980.38;;;12.17;88.42
55470;BME280;41334;47.872;16.384;2022-08-23T06:55:52;98983.47;;;12.33;88.25
55470;BME280;41334;47.872;16.384;2022-08-23T06:59:00;98979.31;;;12.31;88.17
55470;BME280;41334;47.872;16.384;2022-08-23T07:02:24;98983.19;;;12.48;87.72
55470;BME280;41334;47.872;16.384;2022-08-23T07:05:29;98981.88;;;12.77;88.24
55470;BME280;41334;47.872;16.384;2022-08-23T07:09:01;98983.75;;;12.77;87.72
55470;BME280;41334;47.872;16.384;2022-08-23T07:12:04;98988.69;;;12.80;86.73
55470;BME280;41334;47.872;16.384;2022-08-23T07:15:09;98975.88;;;12.82;85.76
55470;BME280;41334;47.872;16.384;2022-08-23T07:18:11;98976.16;;;13.05;85.44
55470;BME280;41334;47.872;16.384;2022-08-23T07:21:14;98977.56;;;13.14;84.92
55470;BME280;41334;47.872;16.384;2022-08-23T07:24:21;98973.81;;;13.15;83.97
55470;BME280;41334;47.872;16.384;2022-08-23T07:27:25;98975.16;;;13.31;82.94
55470;BME280;41334;47.872;16.384;2022-08-23T07:30:47;98979.13;;;13.60;82.78
55470;BME280;41334;47.872;16.384;2022-08-23T07:33:49;98977.63;;;13.64;81.49
55470;BME280;41334;47.872;16.384;2022-08-23T07:36:54;98971.81;;;13.67;80.58
55470;BME280;41334;47.872;16.384;2022-08-23T07:39:57;98981.69;;;13.80;80.49
55470;BME280;41334;47.872;16.384;2022-08-23T07:43:00;98984.72;;;13.90;80.12
55470;BME280;41334;47.872;16.384;2022-08-23T07:46:06;98978.66;;;13.95;79.43
55470;BME280;41334;47.872;16.384;2022-08-23T07:49:27;98967.91;;;14.13;79.21
55470;BME280;41334;47.872;16.384;2022-08-23T07:52:33;98961.81;;;14.25;77.85
55470;BME280;41334;47.872;16.384;2022-08-23T07:55:38;98952.34;;;14.70;75.60
55470;BME280;41334;47.872;16.384;2022-08-23T07:58:55;98941.28;;;15.50;73.37
55470;BME280;41334;47.872;16.384;2022-08-23T08:02:19;98945.56;;;16.05;71.69
55470;BME280;41334;47.872;16.384;2022-08-23T08:05:24;98940.63;;;16.25;69.02
55470;BME280;41334;47.872;16.384;2022-08-23T08:08:27;98929.66;;;16.44;68.46
55470;BME280;41334;47.872;16.384;2022-08-23T08:11:30;98942.22;;;16.73;68.08
55470;BME280;41334;47.872;16.384;2022-08-23T08:14:36;98943.19;;;16.96;67.04
55470;BME280;41334;47.872;16.384;2022-08-23T08:17:40;98947.38;;;16.75;66.45
55470;BME280;41334;47.872;16.384;2022-08-23T08:20:42;98947.28;;;16.70;65.84
55470;BME280;41334;47.872;16.384;2022-08-23T08:24:03;98961.56;;;16.94;67.09
55470;BME280;41334;47.872;16.384;2022-08-23T08:27:17;98958.19;;;16.75;65.79
55470;BME280;41334;47.872;16.384;2022-08-23T08:30:19;98967.66;;;16.25;65.13
55470;BME280;41334;47.872;16.384;2022-08-23T08:33:22;98981.78;;;16.63;66.25
55470;BME280;41334;47.872;16.384;2022-08-23T08:36:38;98978.84;;;16.29;65.24
55470;BME280;41334;47.872;16.384;2022-08-23T08:39:45;98992.69;;;16.21;65.59
55470;BME280;41334;47.872;16.384;2022-08-23T08:46:49;99008.81;;;15.92;65.60
55470;BME280;41334;47.872;16.384;2022-08-23T08:49:57;99006.09;;;15.81;65.83
55470;BME280;41334;47.872;16.384;2022-08-23T08:53:05;99010.50;;;15.63;66.05
55470;BME280;41334;47.872;16.384;2022-08-23T08:56:51;99008.53;;;15.40;65.92
55470;BME280;41334;47.872;16.384;2022-08-23T09:00:03;99009.38;;;15.52;66.63
55470;BME280;41334;47.872;16.384;2022-08-23T09:03:12;99012.69;;;15.55;65.66
55470;BME280;41334;47.872;16.384;2022-08-23T09:06:29;99016.53;;;15.47;65.92
55470;BME280;41334;47.872;16.384;2022-08-23T09:12:54;99002.44;;;15.87;65.45
55470;BME280;41334;47.872;16.384;2022-08-23T09:19:38;99002.69;;;15.97;63.41
55470;BME280;41334;47.872;16.384;2022-08-23T09:22:53;99001.03;;;16.31;63.44
55470;BME280;41334;47.872;16.384;2022-08-23T09:26:23;99005.16;;;16.45;62.02
55470;BME280;41334;47.872;16.384;2022-08-23T09:29:30;99008.56;;;16.41;62.11
55470;BME280;41334;47.872;16.384;2022-08-23T09:32:41;99008.13;;;16.55;61.90
55470;BME280;41334;47.872;16.384;2022-08-23T09:39:26;99024.81;;;16.17;62.73
55470;BME280;41334;47.872;16.384;2022-08-23T09:42:36;99031.81;;;15.95;62.70
55470;BME280;41334;47.872;16.384;2022-08-23T09:48:53;99037.38;;;16.12;63.03
55470;BME280;41334;47.872;16.384;2022-08-23T09:52:30;99046.31;;;16.24;62.24
55470;BME280;41334;47.872;16.384;2022-08-23T09:55:40;99034.19;;;16.03;62.49
55470;BME280;41334;47.872;16.384;2022-08-23T09:58:45;99039.03;;;16.36;62.56
55470;BME280;41334;47.872;16.384;2022-08-23T10:01:58;99049.34;;;16.04;61.95
55470;BME280;41334;47.872;16.384;2022-08-23T10:05:16;99052.81;;;16.46;61.40
55470;BME280;41334;47.872;16.384;2022-08-23T10:08:27;99046.56;;;16.22;61.72
55470;BME280;41334;47.872;16.384;2022-08-23T10:11:42;99054.09;;;16.55;60.71
55470;BME280;41334;47.872;16.384;2022-08-23T10:14:46;99050.69;;;16.84;60.31
55470;BME280;41334;47.872;16.384;2022-08-23T10:18:07;99061.59;;;17.29;58.82
55470;BME280;41334;47.872;16.384;2022-08-23T10:28:04;99062.19;;;16.91;59.31
55470;BME280;41334;47.872;16.384;2022-08-23T10:42:07;99070.69;;;17.63;57.93
55470;BME280;41334;47.872;16.384;2022-08-23T10:51:42;99059.88;;;17.80;56.80
55470;BME280;41334;47.872;16.384;2022-08-23T10:54:54;99057.25;;;18.02;56.21
55470;BME280;41334;47.872;16.384;2022-08-23T10:58:21;99060.38;;;17.77;56.64
55470;BME280;41334;47.872;16.384;2022-08-23T11:01:33;99053.09;;;18.11;55.72
55470;BME280;41334;47.872;16.384;2022-08-23T11:04:43;99052.59;;;18.48;54.88
55470;BME280;41334;47.872;16.384;2022-08-23T11:08:03;99051.38;;;18.39;54.92
55470;BME280;41334;47.872;16.384;2022-08-23T11:24:52;99045.75;;;18.84;53.47
55470;BME280;41334;47.872;16.384;2022-08-23T11:31:37;99035.94;;;18.61;53.53
55470;BME280;41334;47.872;16.384;2022-08-23T11:35:06;99047.91;;;18.82;53.19
55470;BME280;41334;47.872;16.384;2022-08-23T11:38:11;99044.03;;;18.95;52.20
55470;BME280;41334;47.872;16.384;2022-08-23T11:42:05;99055.22;;;18.59;53.04
55470;BME280;41334;47.872;16.384;2022-08-23T11:44:46;99048.06;;;18.36;52.92
55470;BME280;41334;47.872;16.384;2022-08-23T12:01:11;99048.16;;;18.42;52.75
55470;BME280;41334;47.872;16.384;2022-08-23T12:04:36;99046.03;;;19.04;51.92
55470;BME280;41334;47.872;16.384;2022-08-23T12:07:54;99057.59;;;18.95;51.33
55470;BME280;41334;47.872;16.384;2022-08-23T12:11:16;99060.22;;;19.06;51.75
55470;BME280;41334;47.872;16.384;2022-08-23T12:20:41;99069.44;;;18.50;53.32
55470;BME280;41334;47.872;16.384;2022-08-23T12:23:52;99069.50;;;18.72;53.16
55470;BME280;41334;47.872;16.384;2022-08-23T12:27:45;99059.50;;;18.55;52.33
55470;BME280;41334;47.872;16.384;2022-08-23T12:30:40;99068.28;;;18.84;52.04
55470;BME280;41334;47.872;16.384;2022-08-23T12:37:34;99063.88;;;18.78;52.43
55470;BME280;41334;47.872;16.384;2022-08-23T12:40:44;99051.94;;;18.79;52.71
55470;BME280;41334;47.872;16.384;2022-08-23T12:44:04;99044.97;;;19.27;51.54
55470;BME280;41334;47.872;16.384;2022-08-23T12:47:13;99040.09;;;19.56;51.10
55470;BME280;41334;47.872;16.384;2022-08-23T12:50:35;99037.78;;;18.94;51.71
55470;BME280;41334;47.872;16.384;2022-08-23T12:53:40;99045.97;;;18.99;52.04
55470;BME280;41334;47.872;16.384;2022-08-23T12:56:51;99046.16;;;19.36;51.63
55470;BME280;41334;47.872;16.384;2022-08-23T13:03:43;99049.03;;;20.06;49.58
55470;BME280;41334;47.872;16.384;2022-08-23T13:07:00;99046.31;;;19.52;50.44
55470;BME280;41334;47.872;16.384;2022-08-23T13:10:06;99052.75;;;19.95;49.87
55470;BME280;41334;47.872;16.384;2022-08-23T13:13:11;99039.72;;;19.70;49.72
55470;BME280;41334;47.872;16.384;2022-08-23T13:19:37;99057.59;;;20.57;49.11
55470;BME280;41334;47.872;16.384;2022-08-23T13:23:00;99046.44;;;20.21;48.86
55470;BME280;41334;47.872;16.384;2022-08-23T13:26:35;99046.97;;;20.55;48.49
55470;BME280;41334;47.872;16.384;2022-08-23T13:29:57;99056.41;;;20.95;47.96
55470;BME280;41334;47.872;16.384;2022-08-23T13:36:16;62600.09;;;-149.13;100.00
55470;BME280;41334;47.872;16.384;2022-08-23T13:39:22;62600.09;;;-149.13;100.00
55470;BME280;41334;47.872;16.384;2022-08-23T13:42:36;99056.41;;;20.95;47.96
55470;BME280;41334;47.872;16.384;2022-08-23T13:45:50;99058.88;;;20.12;49.34
55470;BME280;41334;47.872;16.384;2022-08-23T13:49:10;99055.59;;;20.10;48.92
55470;BME280;41334;47.872;16.384;2022-08-23T13:52:13;99057.63;;;20.62;47.95
55470;BME280;41334;47.872;16.384;2022-08-23T13:55:51;99056.88;;;20.02;48.46
55470;BME280;41334;47.872;16.384;2022-08-23T13:58:58;99050.44;;;20.46;48.30
55470;BME280;41334;47.872;16.384;2022-08-23T14:02:08;99049.59;;;20.40;48.56
55470;BME280;41334;47.872;16.384;2022-08-23T14:05:12;99052.38;;;20.18;48.70
55470;BME280;41334;47.872;16.384;2022-08-23T14:08:14;99052.25;;;20.35;48.29
55470;BME280;41334;47.872;16.384;2022-08-23T14:11:16;99057.06;;;20.65;48.85
55470;BME280;41334;47.872;16.384;2022-08-23T14:14:19;99062.91;;;20.04;48.80
55470;BME280;41334;47.872;16.384;2022-08-23T14:17:21;99060.41;;;20.03;49.14
55470;BME280;41334;47.872;16.384;2022-08-23T14:20:24;99061.75;;;20.32;49.45
55470;BME280;41334;47.872;16.384;2022-08-23T14:23:44;99057.22;;;20.11;48.97
55470;BME280;41334;47.872;16.384;2022-08-23T14:26:46;99056.13;;;20.44;48.82
55470;BME280;41334;47.872;16.384;2022-08-23T14:29:52;99061.63;;;20.17;48.34
55470;BME280;41334;47.872;16.384;2022-08-23T14:32:55;99065.38;;;20.43;48.96
55470;BME280;41334;47.872;16.384;2022-08-23T14:35:57;99068.97;;;20.16;50.06
55470;BME280;41334;47.872;16.384;2022-08-23T14:38:59;99072.00;;;20.20;49.38
55470;BME280;41334;47.872;16.384;2022-08-23T14:42:02;99077.13;;;19.84;49.69
55470;BME280;41334;47.872;16.384;2022-08-23T14:45:05;99072.72;;;19.78;50.62
55470;BME280;41334;47.872;16.384;2022-08-23T14:48:07;99082.78;;;19.56;50.89
55470;BME280;41334;47.872;16.384;2022-08-23T14:51:27;99084.16;;;19.31;51.76
55470;BME280;41334;47.872;16.384;2022-08-23T14:54:31;99080.09;;;19.61;50.81
55470;BME280;41334;47.872;16.384;2022-08-23T14:57:33;99087.47;;;18.95;52.01
55470;BME280;41334;47.872;16.384;2022-08-23T15:00:35;99097.22;;;18.91;51.67
55470;BME280;41334;47.872;16.384;2022-08-23T15:03:37;99090.06;;;18.68;52.98
55470;BME280;41334;47.872;16.384;2022-08-23T15:06:42;99089.88;;;18.91;52.76
55470;BME280;41334;47.872;16.384;2022-08-23T15:10:06;99094.47;;;18.74;52.60
55470;BME280;41334;47.872;16.384;2022-08-23T15:13:10;99105.13;;;18.75;52.94
55470;BME280;41334;47.872;16.384;2022-08-23T15:16:28;99087.53;;;18.61;53.13
55470;BME280;41334;47.872;16.384;2022-08-23T15:19:30;99091.94;;;18.67;53.06
55470;BME280;41334;47.872;16.384;2022-08-23T15:22:31;99094.09;;;18.48;53.92
55470;BME280;41334;47.872;16.384;2022-08-23T15:25:44;99107.25;;;18.73;53.25
55470;BME280;41334;47.872;16.384;2022-08-23T15:28:47;99109.41;;;18.54;53.71
55470;BME280;41334;47.872;16.384;2022-08-23T15:31:49;99110.19;;;18.04;54.52
55470;BME280;41334;47.872;16.384;2022-08-23T15:34:51;99116.44;;;18.05;55.01
55470;BME280;41334;47.872;16.384;2022-08-23T15:37:55;99099.06;;;18.34;54.72
55470;BME280;41334;47.872;16.384;2022-08-23T15:40:58;99100.19;;;18.22;54.82
55470;BME280;41334;47.872;16.384;2022-08-23T15:44:01;99103.44;;;18.07;54.88
55470;BME280;41334;47.872;16.384;2022-08-23T15:47:04;99103.03;;;17.81;55.40
55470;BME280;41334;47.872;16.384;2022-08-23T15:50:16;99107.78;;;17.91;55.51
55470;BME280;41334;47.872;16.384;2022-08-23T15:53:20;99100.59;;;17.68;55.52
55470;BME280;41334;47.872;16.384;2022-08-23T15:56:35;99095.44;;;17.67;56.10
55470;BME280;41334;47.872;16.384;2022-08-23T15:59:37;99100.50;;;17.63;56.09
55470;BME280;41334;47.872;16.384;2022-08-23T16:02:39;99092.22;;;17.70;56.09
55470;BME280;41334;47.872;16.384;2022-08-23T16:06:01;99090.72;;;17.62;56.11
55470;BME280;41334;47.872;16.384;2022-08-23T16:09:05;99104.53;;;17.61;56.03
55470;BME280;41334;47.872;16.384;2022-08-23T16:12:08;99100.16;;;17.59;56.46
55470;BME280;41334;47.872;16.384;2022-08-23T16:15:12;99102.19;;;17.52;56.19
55470;BME280;41334;47.872;16.384;2022-08-23T16:18:14;99101.91;;;17.37;56.91
55470;BME280;41334;47.872;16.384;2022-08-23T16:21:16;99116.31;;;17.14;57.81
55470;BME280;41334;47.872;16.384;2022-08-23T16:24:19;99109.44;;;17.23;57.87
55470;BME280;41334;47.872;16.384;2022-08-23T16:27:26;99112.53;;;17.15;58.14
55470;BME280;41334;47.872;16.384;2022-08-23T16:30:28;99109.81;;;17.15;58.07
55470;BME280;41334;47.872;16.384;2022-08-23T16:33:30;99103.72;;;16.96;58.87
55470;BME280;41334;47.872;16.384;2022-08-23T16:36:32;99099.84;;;17.04;58.58
55470;BME280;41334;47.872;16.384;2022-08-23T16:39:35;99098.59;;;17.23;58.51
55470;BME280;41334;47.872;16.384;2022-08-23T16:42:37;99097.13;;;16.92;59.24
55470;BME280;41334;47.872;16.384;2022-08-23T16:45:39;99099.59;;;17.05;59.02
55470;BME280;41334;47.872;16.384;2022-08-23T16:48:43;99110.34;;;16.89;59.32
55470;BME280;41334;47.872;16.384;2022-08-23T16:51:46;99107.03;;;16.87;59.22
55470;BME280;41334;47.872;16.384;2022-08-23T16:54:48;99113.97;;;16.83;59.51
55470;BME280;41334;47.872;16.384;2022-08-23T16:57:50;99108.00;;;16.69;60.18
55470;BME280;41334;47.872;16.384;2022-08-23T17:00:52;99108.91;;;16.51;60.52
55470;BME280;41334;47.872;16.384;2022-08-23T17:03:54;99119.84;;;16.44;60.75
55470;BME280;41334;47.872;16.384;2022-08-23T17:06:57;99119.41;;;16.47;60.82
55470;BME280;41334;47.872;16.384;2022-08-23T17:10:00;99132.03;;;16.23;61.76
55470;BME280;41334;47.872;16.384;2022-08-23T17:13:02;99139.53;;;16.10;62.57
55470;BME280;41334;47.872;16.384;2022-08-23T17:16:06;99134.72;;;16.12;62.02
55470;BME280;41334;47.872;16.384;2022-08-23T17:19:09;99141.63;;;15.96;62.97
55470;BME280;41334;47.872;16.384;2022-08-23T17:22:11;99142.47;;;16.08;62.41
55470;BME280;41334;47.872;16.384;2022-08-23T17:25:15;99144.91;;;15.98;62.40
55470;BME280;41334;47.872;16.384;2022-08-23T17:28:17;99144.75;;;15.93;62.59
55470;BME280;41334;47.872;16.384;2022-08-23T17:31:19;99142.72;;;15.76;63.13
55470;BME280;41334;47.872;16.384;2022-08-23T17:34:21;99156.94;;;15.84;63.16
55470;BME280;41334;47.872;16.384;2022-08-23T17:37:23;99166.50;;;15.68;63.43
55470;BME280;41334;47.872;16.384;2022-08-23T17:40:28;99160.16;;;15.62;63.55
55470;BME280;41334;47.872;16.384;2022-08-23T17:43:30;99166.16;;;15.64;64.06
55470;BME280;41334;47.872;16.384;2022-08-23T17:46:37;99163.44;;;15.46;64.50
55470;BME280;41334;47.872;16.384;2022-08-23T17:49:39;99174.09;;;15.41;64.64
55470;BME280;41334;47.872;16.384;2022-08-23T17:52:40;99173.94;;;15.36;64.96
55470;BME280;41334;47.872;16.384;2022-08-23T17:55:42;99173.13;;;15.35;64.72
55470;BME280;41334;47.872;16.384;2022-08-23T17:58:45;99184.00;;;15.29;65.29